sensor_id;sensor_type;location;lat;lon;timestamp;pressure;altitude;pressure_sealevel;temperature;humidity
64064;BME280;50314;50.618;10.642;2023-10-09T00:02:23;97238.97;;;18.45;30.35
64064;BME280;50314;50.618;10.642;2023-10-09T00:04:49;97237.28;;;18.44;29.97
64064;BME280;50314;50.618;10.642;2023-10-09T00:07:17;97227.47;;;18.44;29.99
64064;BME280;50314;50.618;10.642;2023-10-09T00:09:43;97236.31;;;18.45;30.28
64064;BME280;50314;50.618;10.642;2023-10-09T00:12:20;97233.94;;;18.42;30.32
64064;BME280;50314;50.618;10.642;2023-10-09T00:14:50;97231.28;;;18.42;29.93
64064;BME280;50314;50.618;10.642;2023-10-09T00:17:20;97226.78;;;18.42;30.40
64064;BME280;50314;50.618;10.642;2023-10-09T00:19:49;97228.59;;;18.42;30.36
64064;BME280;50314;50.618;10.642;2023-10-09T00:22:17;97225.13;;;18.41;30.27
64064;BME280;50314;50.618;10.642;2023-10-09T00:24:56;97210.25;;;18.39;30.20
64064;BME280;50314;50.618;10.642;2023-10-09T00:27:42;97205.22;;;18.36;30.40
64064;BME280;50314;50.618;10.642;2023-10-09T00:30:12;97208.72;;;18.36;30.08
64064;BME280;50314;50.618;10.642;2023-10-09T00:32:47;97198.03;;;18.36;30.49
64064;BME280;50314;50.618;10.642;2023-10-09T00:35:25;97198.19;;;18.35;30.34
64064;BME280;50314;50.618;10.642;2023-10-09T00:38:07;97196.50;;;18.34;30.18
64064;BME280;50314;50.618;10.642;2023-10-09T00:40:45;97189.22;;;18.36;30.17
64064;BME280;50314;50.618;10.642;2023-10-09T00:43:15;97186.72;;;18.34;30.44
64064;BME280;50314;50.618;10.642;2023-10-09T00:45:46;97176.88;;;18.35;30.52
64064;BME280;50314;50.618;10.642;2023-10-09T00:48:12;97178.53;;;18.36;30.37
64064;BME280;50314;50.618;10.642;2023-10-09T00:50:51;97176.72;;;18.36;30.16
64064;BME280;50314;50.618;10.642;2023-10-09T00:53:21;97164.38;;;18.35;30.14
64064;BME280;50314;50.618;10.642;2023-10-09T00:55:59;97167.88;;;18.36;30.31
64064;BME280;50314;50.618;10.642;2023-10-09T00:58:31;97164.22;;;18.37;30.35
64064;BME280;50314;50.618;10.642;2023-10-09T01:01:01;97151.88;;;18.36;29.95
64064;BME280;50314;50.618;10.642;2023-10-09T01:03:29;97149.22;;;18.36;30.17
64064;BME280;50314;50.618;10.642;2023-10-09T01:06:01;97146.53;;;18.36;30.51
64064;BME280;50314;50.618;10.642;2023-10-09T01:08:38;97150.22;;;18.35;30.31
64064;BME280;50314;50.618;10.642;2023-10-09T01:11:11;97143.19;;;18.34;30.04
64064;BME280;50314;50.618;10.642;2023-10-09T01:13:56;97141.50;;;18.33;30.35
64064;BME280;50314;50.618;10.642;2023-10-09T01:16:42;97146.84;;;18.33;30.12
64064;BME280;50314;50.618;10.642;2023-10-09T01:19:09;97142.50;;;18.31;30.10
64064;BME280;50314;50.618;10.642;2023-10-09T01:21:51;97140.97;;;18.29;30.11
64064;BME280;50314;50.618;10.642;2023-10-09T01:24:16;97136.47;;;18.29;30.25
64064;BME280;50314;50.618;10.642;2023-10-09T01:26:45;97137.47;;;18.28;30.14
64064;BME280;50314;50.618;10.642;2023-10-09T01:29:21;97143.81;;;18.27;30.18
64064;BME280;50314;50.618;10.642;2023-10-09T01:31:49;97142.66;;;18.30;30.10
64064;BME280;50314;50.618;10.642;2023-10-09T01:34:25;97134.09;;;18.26;30.66
64064;BME280;50314;50.618;10.642;2023-10-09T01:37:04;97138.47;;;18.27;30.50
64064;BME280;50314;50.618;10.642;2023-10-09T01:39:38;97145.47;;;18.28;30.23
64064;BME280;50314;50.618;10.642;2023-10-09T01:42:05;97126.13;;;18.26;30.27
64064;BME280;50314;50.618;10.642;2023-10-09T01:44:32;97121.63;;;18.27;30.62
64064;BME280;50314;50.618;10.642;2023-10-09T01:47:04;97126.13;;;18.26;30.60
64064;BME280;50314;50.618;10.642;2023-10-09T01:49:34;97126.94;;;18.27;30.33
64064;BME280;50314;50.618;10.642;2023-10-09T01:52:03;97126.13;;;18.26;30.66
64064;BME280;50314;50.618;10.642;2023-10-09T01:54:38;97126.13;;;18.26;30.23
64064;BME280;50314;50.618;10.642;2023-10-09T01:57:08;97126.41;;;18.23;30.36
64064;BME280;50314;50.618;10.642;2023-10-09T01:59:48;97129.06;;;18.23;30.09
64064;BME280;50314;50.618;10.642;2023-10-09T02:02:17;97119.41;;;18.22;30.64
64064;BME280;50314;50.618;10.642;2023-10-09T02:05:00;97129.53;;;18.19;30.69
64064;BME280;50314;50.618;10.642;2023-10-09T02:07:32;97120.25;;;18.23;30.32
64064;BME280;50314;50.618;10.642;2023-10-09T02:10:12;97113.25;;;18.22;30.55
64064;BME280;50314;50.618;10.642;2023-10-09T02:12:55;97107.09;;;18.21;30.43
64064;BME280;50314;50.618;10.642;2023-10-09T02:15:28;97093.06;;;18.19;30.54
64064;BME280;50314;50.618;10.642;2023-10-09T02:18:26;97094.75;;;18.20;30.35
64064;BME280;50314;50.618;10.642;2023-10-09T02:23:28;97084.38;;;18.17;30.34
64064;BME280;50314;50.618;10.642;2023-10-09T02:26:12;97079.06;;;18.17;30.66
64064;BME280;50314;50.618;10.642;2023-10-09T02:28:54;97074.56;;;18.18;30.56
64064;BME280;50314;50.618;10.642;2023-10-09T02:31:30;97063.91;;;18.18;30.57
64064;BME280;50314;50.618;10.642;2023-10-09T02:34:06;97067.41;;;18.18;30.34
64064;BME280;50314;50.618;10.642;2023-10-09T02:36:33;97059.41;;;18.18;30.36
64064;BME280;50314;50.618;10.642;2023-10-09T02:39:13;97056.72;;;18.18;30.71
64064;BME280;50314;50.618;10.642;2023-10-09T02:41:55;97057.88;;;18.16;30.40
64064;BME280;50314;50.618;10.642;2023-10-09T02:44:41;97064.03;;;18.16;30.31
64064;BME280;50314;50.618;10.642;2023-10-09T02:47:15;97072.03;;;18.16;30.58
64064;BME280;50314;50.618;10.642;2023-10-09T02:49:55;97074.69;;;18.16;30.67
64064;BME280;50314;50.618;10.642;2023-10-09T02:52:26;97065.88;;;18.16;30.66
64064;BME280;50314;50.618;10.642;2023-10-09T02:54:57;97065.03;;;18.15;30.76
64064;BME280;50314;50.618;10.642;2023-10-09T02:57:32;97068.69;;;18.14;30.41
64064;BME280;50314;50.618;10.642;2023-10-09T03:00:07;97069.66;;;18.13;30.54
64064;BME280;50314;50.618;10.642;2023-10-09T03:02:44;97064.34;;;18.13;30.85
64064;BME280;50314;50.618;10.642;2023-10-09T03:05:14;97067.00;;;18.13;30.34
64064;BME280;50314;50.618;10.642;2023-10-09T03:07:40;97067.00;;;18.13;30.58
64064;BME280;50314;50.618;10.642;2023-10-09T03:10:06;97061.66;;;18.13;30.51
64064;BME280;50314;50.618;10.642;2023-10-09T03:12:35;97051.97;;;18.12;30.38
64064;BME280;50314;50.618;10.642;2023-10-09T03:15:01;97047.50;;;18.13;30.57
64064;BME280;50314;50.618;10.642;2023-10-09T03:17:27;97038.41;;;18.05;30.58
64064;BME280;50314;50.618;10.642;2023-10-09T03:19:53;97036.97;;;18.11;30.46
64064;BME280;50314;50.618;10.642;2023-10-09T03:22:20;97036.16;;;18.11;30.45
64064;BME280;50314;50.618;10.642;2023-10-09T03:24:45;97031.66;;;18.11;30.38
64064;BME280;50314;50.618;10.642;2023-10-09T03:27:12;97028.84;;;18.13;30.80
64064;BME280;50314;50.618;10.642;2023-10-09T03:29:39;97035.00;;;18.13;30.36
64064;BME280;50314;50.618;10.642;2023-10-09T03:32:07;97033.22;;;18.14;30.72
64064;BME280;50314;50.618;10.642;2023-10-09T03:34:34;97031.50;;;18.13;30.74
64064;BME280;50314;50.618;10.642;2023-10-09T03:36:59;97035.88;;;18.14;30.77
64064;BME280;50314;50.618;10.642;2023-10-09T03:39:36;97043.88;;;18.14;30.80
64064;BME280;50314;50.618;10.642;2023-10-09T03:42:07;97044.72;;;18.14;30.46
64064;BME280;50314;50.618;10.642;2023-10-09T03:44:44;97052.72;;;18.14;30.81
64064;BME280;50314;50.618;10.642;2023-10-09T03:47:15;97045.69;;;18.13;30.51
64064;BME280;50314;50.618;10.642;2023-10-09T03:49:42;97040.25;;;18.05;30.97
64064;BME280;50314;50.618;10.642;2023-10-09T03:52:09;97033.31;;;18.12;30.57
64064;BME280;50314;50.618;10.642;2023-10-09T03:54:35;97037.69;;;18.13;30.80
64064;BME280;50314;50.618;10.642;2023-10-09T03:57:01;97032.34;;;18.13;30.51
64064;BME280;50314;50.618;10.642;2023-10-09T03:59:27;97036.72;;;18.14;30.51
64064;BME280;50314;50.618;10.642;2023-10-09T04:01:57;97028.84;;;18.13;30.49
64064;BME280;50314;50.618;10.642;2023-10-09T04:04:24;97031.38;;;18.14;30.84
64064;BME280;50314;50.618;10.642;2023-10-09T04:06:50;97025.22;;;18.14;30.86
64064;BME280;50314;50.618;10.642;2023-10-09T04:09:19;97022.38;;;18.15;30.36
64064;BME280;50314;50.618;10.642;2023-10-09T04:11:49;97016.50;;;18.12;30.54
64064;BME280;50314;50.618;10.642;2023-10-09T04:14:25;97022.66;;;18.12;30.75
64064;BME280;50314;50.618;10.642;2023-10-09T04:16:58;97019.03;;;18.13;30.50
64064;BME280;50314;50.618;10.642;2023-10-09T04:19:32;97017.31;;;18.12;30.53
64064;BME280;50314;50.618;10.642;2023-10-09T04:22:17;97016.50;;;18.12;30.50
64064;BME280;50314;50.618;10.642;2023-10-09T04:24:56;97014.81;;;18.11;30.54
64064;BME280;50314;50.618;10.642;2023-10-09T04:27:22;97013.13;;;18.09;30.67
64064;BME280;50314;50.618;10.642;2023-10-09T04:29:52;97019.31;;;18.10;31.02
64064;BME280;50314;50.618;10.642;2023-10-09T04:32:20;97009.50;;;18.11;30.61
64064;BME280;50314;50.618;10.642;2023-10-09T04:34:51;96999.66;;;18.11;30.37
64064;BME280;50314;50.618;10.642;2023-10-09T04:37:22;96986.47;;;18.09;30.59
64064;BME280;50314;50.618;10.642;2023-10-09T04:40:04;96983.81;;;18.09;31.01
64064;BME280;50314;50.618;10.642;2023-10-09T04:42:59;96992.66;;;18.10;30.90
64064;BME280;50314;50.618;10.642;2023-10-09T04:45:25;96988.00;;;18.12;30.68
64064;BME280;50314;50.618;10.642;2023-10-09T04:48:10;96983.69;;;18.11;31.01
64064;BME280;50314;50.618;10.642;2023-10-09T04:50:36;96988.00;;;18.12;31.08
64064;BME280;50314;50.618;10.642;2023-10-09T04:53:12;96990.66;;;18.12;31.00
64064;BME280;50314;50.618;10.642;2023-10-09T04:55:44;96987.13;;;18.03;31.24
64064;BME280;50314;50.618;10.642;2023-10-09T04:58:22;96986.47;;;18.09;31.00
64064;BME280;50314;50.618;10.642;2023-10-09T05:00:54;96980.19;;;18.11;30.87
64064;BME280;50314;50.618;10.642;2023-10-09T05:03:23;96981.69;;;18.13;30.65
64064;BME280;50314;50.618;10.642;2023-10-09T05:06:09;96977.25;;;18.14;30.66
64064;BME280;50314;50.618;10.642;2023-10-09T05:08:53;96981.69;;;18.13;30.70
64064;BME280;50314;50.618;10.642;2023-10-09T05:11:22;96987.03;;;18.13;30.83
64064;BME280;50314;50.618;10.642;2023-10-09T05:14:02;96980.88;;;18.13;30.73
64064;BME280;50314;50.618;10.642;2023-10-09T05:16:50;96977.25;;;18.14;30.69
64064;BME280;50314;50.618;10.642;2023-10-09T05:19:26;96989.69;;;18.13;30.75
64064;BME280;50314;50.618;10.642;2023-10-09T05:22:10;96980.88;;;18.13;30.61
64064;BME280;50314;50.618;10.642;2023-10-09T05:24:56;96991.53;;;18.13;30.65
64064;BME280;50314;50.618;10.642;2023-10-09T05:27:22;96994.91;;;18.15;30.88
64064;BME280;50314;50.618;10.642;2023-10-09T05:30:07;96994.06;;;18.14;30.64
64064;BME280;50314;50.618;10.642;2023-10-09T05:32:54;96994.34;;;18.11;30.69
64064;BME280;50314;50.618;10.642;2023-10-09T05:35:46;96983.41;;;18.14;30.63
64064;BME280;50314;50.618;10.642;2023-10-09T05:38:32;96989.69;;;18.13;30.54
64064;BME280;50314;50.618;10.642;2023-10-09T05:41:01;96980.75;;;18.14;30.68
64064;BME280;50314;50.618;10.642;2023-10-09T05:43:47;96985.06;;;18.15;30.57
64064;BME280;50314;50.618;10.642;2023-10-09T05:46:31;96990.56;;;18.14;30.62
64064;BME280;50314;50.618;10.642;2023-10-09T05:49:01;96994.06;;;18.14;30.82
64064;BME280;50314;50.618;10.642;2023-10-09T05:51:44;96987.91;;;18.14;30.68
64064;BME280;50314;50.618;10.642;2023-10-09T05:54:18;96990.41;;;18.15;30.59
64064;BME280;50314;50.618;10.642;2023-10-09T05:57:09;96995.72;;;18.15;30.96
64064;BME280;50314;50.618;10.642;2023-10-09T05:59:55;96999.41;;;18.14;30.88
64064;BME280;50314;50.618;10.642;2023-10-09T06:02:39;97003.72;;;18.15;30.61
64064;BME280;50314;50.618;10.642;2023-10-09T06:05:23;96996.72;;;18.14;30.69
64064;BME280;50314;50.618;10.642;2023-10-09T06:08:15;97003.78;;;18.05;30.97
64064;BME280;50314;50.618;10.642;2023-10-09T06:10:50;96997.69;;;18.13;30.59
64064;BME280;50314;50.618;10.642;2023-10-09T06:13:31;97001.06;;;18.15;30.71
64064;BME280;50314;50.618;10.642;2023-10-09T06:16:06;97004.56;;;18.16;30.60
64064;BME280;50314;50.618;10.642;2023-10-09T06:18:46;97004.41;;;18.17;30.79
64064;BME280;50314;50.618;10.642;2023-10-09T06:21:32;97006.91;;;18.19;30.87
64064;BME280;50314;50.618;10.642;2023-10-09T06:24:16;97006.09;;;18.18;31.33
64064;BME280;50314;50.618;10.642;2023-10-09T06:26:43;97000.59;;;18.20;31.38
64064;BME280;50314;50.618;10.642;2023-10-09T06:29:29;97005.09;;;18.19;31.61
64064;BME280;50314;50.618;10.642;2023-10-09T06:32:07;96998.91;;;18.19;31.21
64064;BME280;50314;50.618;10.642;2023-10-09T06:35:01;97010.28;;;18.21;31.30
64064;BME280;50314;50.618;10.642;2023-10-09T06:37:50;97015.44;;;18.22;31.27
64064;BME280;50314;50.618;10.642;2023-10-09T06:40:35;97015.44;;;18.22;31.09
64064;BME280;50314;50.618;10.642;2023-10-09T06:43:20;97014.59;;;18.22;31.04
64064;BME280;50314;50.618;10.642;2023-10-09T06:45:58;97008.59;;;18.20;31.27
64064;BME280;50314;50.618;10.642;2023-10-09T06:48:43;97008.97;;;18.25;30.95
64064;BME280;50314;50.618;10.642;2023-10-09T06:51:21;97013.31;;;18.26;30.98
64064;BME280;50314;50.618;10.642;2023-10-09T06:53:50;97013.16;;;18.27;31.34
64064;BME280;50314;50.618;10.642;2023-10-09T06:56:31;97016.97;;;18.25;31.43
64064;BME280;50314;50.618;10.642;2023-10-09T06:59:04;97024.28;;;18.23;31.50
64064;BME280;50314;50.618;10.642;2023-10-09T07:01:42;97024.97;;;18.25;31.14
64064;BME280;50314;50.618;10.642;2023-10-09T07:04:09;97017.81;;;18.25;31.15
64064;BME280;50314;50.618;10.642;2023-10-09T07:06:45;97027.63;;;18.25;31.42
64064;BME280;50314;50.618;10.642;2023-10-09T07:09:11;97026.81;;;18.24;31.47
64064;BME280;50314;50.618;10.642;2023-10-09T07:11:54;97028.63;;;18.24;32.10
64064;BME280;50314;50.618;10.642;2023-10-09T07:14:23;97031.84;;;18.27;31.56
64064;BME280;50314;50.618;10.642;2023-10-09T07:16:59;97030.84;;;18.28;31.93
64064;BME280;50314;50.618;10.642;2023-10-09T07:19:31;97035.84;;;18.31;31.56
64064;BME280;50314;50.618;10.642;2023-10-09T07:22:03;97041.03;;;18.33;31.32
64064;BME280;50314;50.618;10.642;2023-10-09T07:24:32;97048.19;;;18.33;31.67
64064;BME280;50314;50.618;10.642;2023-10-09T07:27:12;97052.38;;;18.35;31.57
64064;BME280;50314;50.618;10.642;2023-10-09T07:29:41;97051.38;;;18.36;31.33
64064;BME280;50314;50.618;10.642;2023-10-09T07:32:18;97053.22;;;18.36;31.49
64064;BME280;50314;50.618;10.642;2023-10-09T07:34:50;97052.38;;;18.35;31.81
64064;BME280;50314;50.618;10.642;2023-10-09T07:37:25;97054.22;;;18.35;31.68
64064;BME280;50314;50.618;10.642;2023-10-09T07:39:56;97055.75;;;18.37;31.33
64064;BME280;50314;50.618;10.642;2023-10-09T07:42:24;97052.53;;;18.34;31.15
64064;BME280;50314;50.618;10.642;2023-10-09T07:45:10;97058.84;;;18.33;30.79
64064;BME280;50314;50.618;10.642;2023-10-09T07:47:58;97065.19;;;18.31;30.69
64064;BME280;50314;50.618;10.642;2023-10-09T07:50:24;97060.00;;;18.30;30.90
64064;BME280;50314;50.618;10.642;2023-10-09T07:52:57;97062.81;;;18.28;30.71
64064;BME280;50314;50.618;10.642;2023-10-09T07:55:40;97058.50;;;18.27;30.69
64064;BME280;50314;50.618;10.642;2023-10-09T07:58:11;97062.66;;;18.30;30.84
64064;BME280;50314;50.618;10.642;2023-10-09T08:00:40;97070.53;;;18.31;30.58
64064;BME280;50314;50.618;10.642;2023-10-09T08:03:32;97071.19;;;18.34;30.72
64064;BME280;50314;50.618;10.642;2023-10-09T08:05:59;97061.38;;;18.34;30.84
64064;BME280;50314;50.618;10.642;2023-10-09T08:08:44;97076.22;;;18.37;30.57
64064;BME280;50314;50.618;10.642;2023-10-09T08:11:31;97070.88;;;18.37;30.78
64064;BME280;50314;50.618;10.642;2023-10-09T08:14:08;97073.25;;;18.40;31.07
64064;BME280;50314;50.618;10.642;2023-10-09T08:16:53;97069.59;;;18.41;31.11
64064;BME280;50314;50.618;10.642;2023-10-09T08:19:37;97072.28;;;18.41;30.83
64064;BME280;50314;50.618;10.642;2023-10-09T08:22:28;97076.91;;;18.39;31.17
64064;BME280;50314;50.618;10.642;2023-10-09T08:24:54;97073.63;;;18.45;30.70
64064;BME280;50314;50.618;10.642;2023-10-09T08:27:27;97077.97;;;18.46;31.00
64064;BME280;50314;50.618;10.642;2023-10-09T08:30:12;97078.34;;;18.51;30.87
64064;BME280;50314;50.618;10.642;2023-10-09T08:32:38;97079.03;;;18.53;31.21
64064;BME280;50314;50.618;10.642;2023-10-09T08:35:05;97089.38;;;18.56;31.09
64064;BME280;50314;50.618;10.642;2023-10-09T08:37:45;97101.72;;;18.57;31.19
64064;BME280;50314;50.618;10.642;2023-10-09T08:40:14;97098.09;;;18.58;31.23
64064;BME280;50314;50.618;10.642;2023-10-09T08:42:50;97097.09;;;18.59;31.18
64064;BME280;50314;50.618;10.642;2023-10-09T08:45:21;97087.25;;;18.60;31.17
64064;BME280;50314;50.618;10.642;2023-10-09T08:47:56;97083.44;;;18.62;31.40
64064;BME280;50314;50.618;10.642;2023-10-09T08:50:22;97075.97;;;18.66;31.14
64064;BME280;50314;50.618;10.642;2023-10-09T08:52:49;97076.66;;;18.68;30.78
64064;BME280;50314;50.618;10.642;2023-10-09T08:55:15;97086.47;;;18.67;31.02
64064;BME280;50314;50.618;10.642;2023-10-09T08:57:47;97096.16;;;18.68;31.29
64064;BME280;50314;50.618;10.642;2023-10-09T09:00:17;97098.66;;;18.70;31.12
64064;BME280;50314;50.618;10.642;2023-10-09T09:02:47;97093.84;;;18.73;31.33
64064;BME280;50314;50.618;10.642;2023-10-09T09:05:17;97090.34;;;18.73;31.24
64064;BME280;50314;50.618;10.642;2023-10-09T09:07:44;97095.41;;;18.76;31.35
64064;BME280;50314;50.618;10.642;2023-10-09T09:10:09;97087.94;;;18.80;31.46
64064;BME280;50314;50.618;10.642;2023-10-09T09:12:47;97082.47;;;18.81;31.39
64064;BME280;50314;50.618;10.642;2023-10-09T09:15:19;97095.63;;;18.83;31.04
64064;BME280;50314;50.618;10.642;2023-10-09T09:17:49;97083.81;;;18.85;31.28
64064;BME280;50314;50.618;10.642;2023-10-09T09:22:53;97086.31;;;18.87;31.35
64064;BME280;50314;50.618;10.642;2023-10-09T09:25:21;97093.66;;;18.85;31.70
64064;BME280;50314;50.618;10.642;2023-10-09T09:27:50;97086.53;;;18.93;31.14
64064;BME280;50314;50.618;10.642;2023-10-09T09:30:28;97074.19;;;18.92;31.39
64064;BME280;50314;50.618;10.642;2023-10-09T09:33:20;97072.16;;;18.94;31.25
64064;BME280;50314;50.618;10.642;2023-10-09T09:35:59;97078.06;;;18.98;31.32
64064;BME280;50314;50.618;10.642;2023-10-09T09:38:28;97079.09;;;19.05;31.20
64064;BME280;50314;50.618;10.642;2023-10-09T09:40:56;97066.41;;;19.07;31.20
64064;BME280;50314;50.618;10.642;2023-10-09T09:43:22;97073.09;;;19.11;31.13
64064;BME280;50314;50.618;10.642;2023-10-09T09:45:48;97072.13;;;19.12;31.41
64064;BME280;50314;50.618;10.642;2023-10-09T09:48:18;97072.78;;;19.14;31.13
64064;BME280;50314;50.618;10.642;2023-10-09T09:50:44;97070.81;;;19.16;31.36
64064;BME280;50314;50.618;10.642;2023-10-09T09:53:14;97063.50;;;19.18;31.33
64064;BME280;50314;50.618;10.642;2023-10-09T09:55:50;97059.13;;;19.17;31.41
64064;BME280;50314;50.618;10.642;2023-10-09T09:58:25;97044.31;;;19.23;31.19
64064;BME280;50314;50.618;10.642;2023-10-09T10:01:11;97037.31;;;19.22;31.24
64064;BME280;50314;50.618;10.642;2023-10-09T10:03:56;97043.47;;;19.22;31.35
64064;BME280;50314;50.618;10.642;2023-10-09T10:06:24;97044.16;;;19.24;31.20
64064;BME280;50314;50.618;10.642;2023-10-09T10:08:54;97057.34;;;19.26;31.29
64064;BME280;50314;50.618;10.642;2023-10-09T10:11:45;97058.16;;;19.18;31.60
64064;BME280;50314;50.618;10.642;2023-10-09T10:14:12;97059.50;;;19.22;31.78
64064;BME280;50314;50.618;10.642;2023-10-09T10:17:13;97057.28;;;19.18;31.74
64064;BME280;50314;50.618;10.642;2023-10-09T10:22:29;97067.53;;;19.31;31.69
64064;BME280;50314;50.618;10.642;2023-10-09T10:24:58;97061.56;;;19.37;31.68
64064;BME280;50314;50.618;10.642;2023-10-09T10:27:28;97040.59;;;19.42;31.61
64064;BME280;50314;50.618;10.642;2023-10-09T10:32:57;97061.78;;;19.43;31.38
64064;BME280;50314;50.618;10.642;2023-10-09T10:35:24;97056.66;;;19.50;31.14
64064;BME280;50314;50.618;10.642;2023-10-09T10:38:27;97046.47;;;19.45;31.34
64064;BME280;50314;50.618;10.642;2023-10-09T10:41:18;97047.28;;;19.46;31.21
64064;BME280;50314;50.618;10.642;2023-10-09T10:43:48;97051.81;;;19.54;31.14
64064;BME280;50314;50.618;10.642;2023-10-09T10:46:17;97048.13;;;19.55;31.05
64064;BME280;50314;50.618;10.642;2023-10-09T10:48:59;97046.16;;;19.57;31.13
64064;BME280;50314;50.618;10.642;2023-10-09T10:51:26;97050.16;;;19.61;31.02
64064;BME280;50314;50.618;10.642;2023-10-09T10:54:03;97050.53;;;19.66;31.19
64064;BME280;50314;50.618;10.642;2023-10-09T10:56:48;97048.38;;;19.69;31.12
64064;BME280;50314;50.618;10.642;2023-10-09T10:59:14;97065.75;;;19.74;30.89
64064;BME280;50314;50.618;10.642;2023-10-09T11:01:51;97069.94;;;19.76;31.22
64064;BME280;50314;50.618;10.642;2023-10-09T11:04:39;97069.63;;;19.79;31.01
64064;BME280;50314;50.618;10.642;2023-10-09T11:07:08;97061.28;;;19.82;31.01
64064;BME280;50314;50.618;10.642;2023-10-09T11:09:56;97051.41;;;19.83;30.96
64064;BME280;50314;50.618;10.642;2023-10-09T11:15:09;97032.88;;;19.89;30.91
64064;BME280;50314;50.618;10.642;2023-10-09T11:18:05;97030.53;;;19.86;31.02
64064;BME280;50314;50.618;10.642;2023-10-09T11:20:39;97019.34;;;19.91;30.75
64064;BME280;50314;50.618;10.642;2023-10-09T11:23:06;97005.66;;;19.94;30.56
64064;BME280;50314;50.618;10.642;2023-10-09T11:25:39;97001.97;;;19.95;30.50
64064;BME280;50314;50.618;10.642;2023-10-09T11:28:23;97002.97;;;19.94;30.52
64064;BME280;50314;50.618;10.642;2023-10-09T11:33:47;96989.28;;;19.97;30.54
64064;BME280;50314;50.618;10.642;2023-10-09T11:36:17;96993.31;;;20.01;30.59
64064;BME280;50314;50.618;10.642;2023-10-09T11:38:43;96986.00;;;20.03;30.36
64064;BME280;50314;50.618;10.642;2023-10-09T11:41:15;96982.13;;;20.06;30.36
64064;BME280;50314;50.618;10.642;2023-10-09T11:43:53;96986.31;;;20.08;30.29
64064;BME280;50314;50.618;10.642;2023-10-09T11:46:22;96980.97;;;20.08;30.21
64064;BME280;50314;50.618;10.642;2023-10-09T11:49:07;96979.78;;;20.11;30.23
64064;BME280;50314;50.618;10.642;2023-10-09T11:51:45;96980.63;;;20.11;30.31
64064;BME280;50314;50.618;10.642;2023-10-09T11:54:30;96982.28;;;20.12;30.23
64064;BME280;50314;50.618;10.642;2023-10-09T11:56:57;96969.59;;;20.14;30.20
64064;BME280;50314;50.618;10.642;2023-10-09T11:59:29;96966.59;;;20.17;30.18
64064;BME280;50314;50.618;10.642;2023-10-09T12:02:07;96958.56;;;20.17;30.33
64064;BME280;50314;50.618;10.642;2023-10-09T12:04:42;96960.25;;;20.18;30.24
64064;BME280;50314;50.618;10.642;2023-10-09T12:07:08;96973.47;;;20.20;30.21
64064;BME280;50314;50.618;10.642;2023-10-09T12:09:36;96974.09;;;20.22;30.05
64064;BME280;50314;50.618;10.642;2023-10-09T12:12:07;96960.91;;;20.21;30.05
64064;BME280;50314;50.618;10.642;2023-10-09T12:14:53;96971.94;;;20.17;30.14
64064;BME280;50314;50.618;10.642;2023-10-09T12:17:38;96965.09;;;20.23;30.26
64064;BME280;50314;50.618;10.642;2023-10-09T12:20:09;96958.75;;;20.24;30.16
64064;BME280;50314;50.618;10.642;2023-10-09T12:22:40;96955.06;;;20.25;30.24
64064;BME280;50314;50.618;10.642;2023-10-09T12:25:06;96958.41;;;20.27;30.24
64064;BME280;50314;50.618;10.642;2023-10-09T12:27:34;96972.59;;;20.28;30.13
64064;BME280;50314;50.618;10.642;2023-10-09T12:30:00;96971.59;;;20.29;30.18
64064;BME280;50314;50.618;10.642;2023-10-09T12:32:28;96971.59;;;20.29;30.10
64064;BME280;50314;50.618;10.642;2023-10-09T12:34:54;96969.59;;;20.31;30.11
64064;BME280;50314;50.618;10.642;2023-10-09T12:37:21;96973.94;;;20.32;30.04
64064;BME280;50314;50.618;10.642;2023-10-09T12:39:47;96964.06;;;20.32;30.04
64064;BME280;50314;50.618;10.642;2023-10-09T12:42:13;96964.75;;;20.34;30.02
64064;BME280;50314;50.618;10.642;2023-10-09T12:44:38;96965.75;;;20.33;30.39
64064;BME280;50314;50.618;10.642;2023-10-09T12:47:07;96958.91;;;20.31;30.52
64064;BME280;50314;50.618;10.642;2023-10-09T12:49:33;96959.56;;;20.33;30.52
64064;BME280;50314;50.618;10.642;2023-10-09T12:51:59;96966.75;;;20.32;30.54
64064;BME280;50314;50.618;10.642;2023-10-09T12:54:25;96971.09;;;20.33;30.33
64064;BME280;50314;50.618;10.642;2023-10-09T12:56:54;96983.63;;;20.33;30.42
64064;BME280;50314;50.618;10.642;2023-10-09T12:59:21;96979.28;;;20.32;30.30
64064;BME280;50314;50.618;10.642;2023-10-09T13:01:47;96989.16;;;20.31;30.17
64064;BME280;50314;50.618;10.642;2023-10-09T13:04:18;96982.78;;;20.32;30.29
64064;BME280;50314;50.618;10.642;2023-10-09T13:06:48;96980.13;;;20.32;30.28
64064;BME280;50314;50.618;10.642;2023-10-09T13:09:17;96977.44;;;20.32;30.20
64064;BME280;50314;50.618;10.642;2023-10-09T13:11:58;96974.94;;;20.31;30.30
64064;BME280;50314;50.618;10.642;2023-10-09T13:14:26;96974.13;;;20.30;29.99
64064;BME280;50314;50.618;10.642;2023-10-09T13:16:52;96980.28;;;20.31;30.12
64064;BME280;50314;50.618;10.642;2023-10-09T13:19:18;96974.94;;;20.31;29.94
64064;BME280;50314;50.618;10.642;2023-10-09T13:21:44;96967.06;;;20.29;30.07
64064;BME280;50314;50.618;10.642;2023-10-09T13:24:10;96976.13;;;20.28;29.98
64064;BME280;50314;50.618;10.642;2023-10-09T13:26:44;96983.13;;;20.29;30.17
64064;BME280;50314;50.618;10.642;2023-10-09T13:29:16;96980.44;;;20.29;29.93
64064;BME280;50314;50.618;10.642;2023-10-09T13:31:48;96984.00;;;20.30;29.98
64064;BME280;50314;50.618;10.642;2023-10-09T13:34:16;96988.47;;;20.29;30.02
64064;BME280;50314;50.618;10.642;2023-10-09T13:36:42;96986.81;;;20.28;29.87
64064;BME280;50314;50.618;10.642;2023-10-09T13:39:18;96985.97;;;20.28;29.99
64064;BME280;50314;50.618;10.642;2023-10-09T13:41:57;96984.66;;;20.24;30.04
64064;BME280;50314;50.618;10.642;2023-10-09T13:44:30;96982.47;;;20.27;29.99